Matoaca, Virginia
Current Conditions -  °F | °C
As of 1:55 AM on Thursday 23 Oct 2014 (Local Time) from KPTB Reporting Station
Overcast Overcast  
Wind Chill: 10°   Ceiling: 4200
Heat Index: 10°   Visibility: 10mi
Dew Point:   Wind: 8mph
Humidity: 75%   Direction: 280°W
Pressure: 29.96"   Gusts: NA
Location:  37.2163°N, 77.4783°W
Report Text: KPTB 230555Z AUTO 28007KT 10SM OVC042 10/06 A2996 RMK AO2 T01020059 10130 20093
Loading
Personal Weather Stations






























Interactive Weather Map
Tropical Storm Tracking
New forecast layout! Learn more

10-Day Weather Forecast

Advertisements
Track Severe Weather on mobile